<?xml version="1.0" encoding="UTF-8" standalone="no" ?>
<gpx xmlns="http://www.topografix.com/GPX/1/1" xmlns:xsi="http://www.w3.org/2001/XMLSchema-instance" xsi:schemaLocation="http://www.topografix.com/GPX/1/1 http://www.topografix.com/GPX/1/1/gpx.xsd" version="1.1" creator="VisuGPX - https://www.visugpx.com">
  <metadata>
    <name>Bivouas Ance Chorsin</name>
    <desc><![CDATA[Bivouac Acp3c au bord de l ance direction Chorsin]]></desc>
  </metadata>
  <trk>
    <name><![CDATA[Vallée de l'Ance / Chorsin août 2024-19561129]]></name>
    <extensions>
      <line xmlns="http://www.topografix.com/GPX/gpx_style/0/2">
        <color>0000FF</color>
        <width>4</width>
      </line>
    </extensions>
    <trkseg>
      <trkpt lat="45.57758" lon="3.87207">
        <ele>1170</ele>
        <time>2024-08-01T11:48:43Z</time>
      </trkpt>
      <trkpt lat="45.57833" lon="3.87218">
        <ele>1168</ele>
        <time>2024-08-01T11:49:43Z</time>
      </trkpt>
      <trkpt lat="45.57889" lon="3.87236">
        <ele>1170</ele>
        <time>2024-08-01T11:50:29Z</time>
      </trkpt>
      <trkpt lat="45.57935" lon="3.8729">
        <ele>1179</ele>
        <time>2024-08-01T11:51:17Z</time>
      </trkpt>
      <trkpt lat="45.58113" lon="3.87277">
        <ele>1180</ele>
        <time>2024-08-01T11:53:40Z</time>
      </trkpt>
      <trkpt lat="45.58251" lon="3.87199">
        <ele>1174</ele>
        <time>2024-08-01T11:55:39Z</time>
      </trkpt>
      <trkpt lat="45.58299" lon="3.87152">
        <ele>1173</ele>
        <time>2024-08-01T11:56:25Z</time>
      </trkpt>
      <trkpt lat="45.58365" lon="3.87006">
        <ele>1186</ele>
        <time>2024-08-01T11:58:03Z</time>
      </trkpt>
      <trkpt lat="45.58335" lon="3.86946">
        <ele>1194</ele>
        <time>2024-08-01T11:58:44Z</time>
      </trkpt>
      <trkpt lat="45.58347" lon="3.86843">
        <ele>1203</ele>
        <time>2024-08-01T11:59:42Z</time>
      </trkpt>
      <trkpt lat="45.58441" lon="3.86838">
        <ele>1214</ele>
        <time>2024-08-01T12:00:58Z</time>
      </trkpt>
      <trkpt lat="45.58491" lon="3.86763">
        <ele>1227</ele>
        <time>2024-08-01T12:01:56Z</time>
      </trkpt>
      <trkpt lat="45.58537" lon="3.86746">
        <ele>1232</ele>
        <time>2024-08-01T12:02:34Z</time>
      </trkpt>
      <trkpt lat="45.58621" lon="3.8671">
        <ele>1239</ele>
        <time>2024-08-01T12:03:44Z</time>
      </trkpt>
      <trkpt lat="45.58714" lon="3.86694">
        <ele>1244</ele>
        <time>2024-08-01T12:04:59Z</time>
      </trkpt>
      <trkpt lat="45.58757" lon="3.86691">
        <ele>1245</ele>
        <time>2024-08-01T12:05:33Z</time>
      </trkpt>
      <trkpt lat="45.58762" lon="3.86685">
        <ele>1246</ele>
        <time>2024-08-01T12:05:39Z</time>
      </trkpt>
      <trkpt lat="45.58817" lon="3.86578">
        <ele>1258</ele>
        <time>2024-08-01T12:06:53Z</time>
      </trkpt>
      <trkpt lat="45.58863" lon="3.86558">
        <ele>1259</ele>
        <time>2024-08-01T12:07:32Z</time>
      </trkpt>
      <trkpt lat="45.58951" lon="3.86534">
        <ele>1258</ele>
        <time>2024-08-01T12:08:43Z</time>
      </trkpt>
      <trkpt lat="45.58991" lon="3.86636">
        <ele>1257</ele>
        <time>2024-08-01T12:09:49Z</time>
      </trkpt>
      <trkpt lat="45.59016" lon="3.86665">
        <ele>1256</ele>
        <time>2024-08-01T12:10:15Z</time>
      </trkpt>
      <trkpt lat="45.59081" lon="3.86687">
        <ele>1250</ele>
        <time>2024-08-01T12:11:08Z</time>
      </trkpt>
      <trkpt lat="45.59111" lon="3.867">
        <ele>1246</ele>
        <time>2024-08-01T12:11:33Z</time>
      </trkpt>
      <trkpt lat="45.59129" lon="3.86721">
        <ele>1244</ele>
        <time>2024-08-01T12:11:52Z</time>
      </trkpt>
      <trkpt lat="45.59133" lon="3.86697">
        <ele>1244</ele>
        <time>2024-08-01T12:12:06Z</time>
      </trkpt>
      <trkpt lat="45.59125" lon="3.86659">
        <ele>1245</ele>
        <time>2024-08-01T12:12:28Z</time>
      </trkpt>
      <trkpt lat="45.59112" lon="3.86598">
        <ele>1245</ele>
        <time>2024-08-01T12:13:04Z</time>
      </trkpt>
      <trkpt lat="45.59114" lon="3.86571">
        <ele>1244</ele>
        <time>2024-08-01T12:13:19Z</time>
      </trkpt>
      <trkpt lat="45.59112" lon="3.8651">
        <ele>1241</ele>
        <time>2024-08-01T12:13:53Z</time>
      </trkpt>
      <trkpt lat="45.59121" lon="3.86491">
        <ele>1239</ele>
        <time>2024-08-01T12:14:06Z</time>
      </trkpt>
      <trkpt lat="45.5912" lon="3.86462">
        <ele>1239</ele>
        <time>2024-08-01T12:14:22Z</time>
      </trkpt>
      <trkpt lat="45.59133" lon="3.86379">
        <ele>1237</ele>
        <time>2024-08-01T12:15:10Z</time>
      </trkpt>
      <trkpt lat="45.59133" lon="3.86339">
        <ele>1237</ele>
        <time>2024-08-01T12:15:32Z</time>
      </trkpt>
      <trkpt lat="45.59145" lon="3.86305">
        <ele>1236</ele>
        <time>2024-08-01T12:15:54Z</time>
      </trkpt>
      <trkpt lat="45.59161" lon="3.86297">
        <ele>1234</ele>
        <time>2024-08-01T12:16:07Z</time>
      </trkpt>
      <trkpt lat="45.59176" lon="3.86327">
        <ele>1233</ele>
        <time>2024-08-01T12:16:28Z</time>
      </trkpt>
      <trkpt lat="45.59208" lon="3.86358">
        <ele>1237</ele>
        <time>2024-08-01T12:16:59Z</time>
      </trkpt>
      <trkpt lat="45.59246" lon="3.86413">
        <ele>1238</ele>
        <time>2024-08-01T12:17:42Z</time>
      </trkpt>
      <trkpt lat="45.59279" lon="3.86443">
        <ele>1238</ele>
        <time>2024-08-01T12:18:13Z</time>
      </trkpt>
      <trkpt lat="45.59303" lon="3.86476">
        <ele>1238</ele>
        <time>2024-08-01T12:18:40Z</time>
      </trkpt>
      <trkpt lat="45.59334" lon="3.86532">
        <ele>1235</ele>
        <time>2024-08-01T12:19:20Z</time>
      </trkpt>
      <trkpt lat="45.59353" lon="3.86547">
        <ele>1231</ele>
        <time>2024-08-01T12:19:37Z</time>
      </trkpt>
      <trkpt lat="45.5943" lon="3.86476">
        <ele>1236</ele>
        <time>2024-08-01T12:20:51Z</time>
      </trkpt>
      <trkpt lat="45.59443" lon="3.86469">
        <ele>1235</ele>
        <time>2024-08-01T12:21:02Z</time>
      </trkpt>
      <trkpt lat="45.59468" lon="3.86449">
        <ele>1234</ele>
        <time>2024-08-01T12:21:25Z</time>
      </trkpt>
      <trkpt lat="45.59516" lon="3.86362">
        <ele>1238</ele>
        <time>2024-08-01T12:22:27Z</time>
      </trkpt>
      <trkpt lat="45.59524" lon="3.86332">
        <ele>1240</ele>
        <time>2024-08-01T12:22:45Z</time>
      </trkpt>
      <trkpt lat="45.59527" lon="3.86293">
        <ele>1242</ele>
        <time>2024-08-01T12:23:07Z</time>
      </trkpt>
      <trkpt lat="45.59547" lon="3.8623">
        <ele>1245</ele>
        <time>2024-08-01T12:23:46Z</time>
      </trkpt>
      <trkpt lat="45.59561" lon="3.86205">
        <ele>1245</ele>
        <time>2024-08-01T12:24:04Z</time>
      </trkpt>
      <trkpt lat="45.59599" lon="3.86164">
        <ele>1247</ele>
        <time>2024-08-01T12:24:42Z</time>
      </trkpt>
      <trkpt lat="45.59636" lon="3.86094">
        <ele>1253</ele>
        <time>2024-08-01T12:25:31Z</time>
      </trkpt>
      <trkpt lat="45.59657" lon="3.86076">
        <ele>1256</ele>
        <time>2024-08-01T12:25:50Z</time>
      </trkpt>
      <trkpt lat="45.59673" lon="3.8605">
        <ele>1259</ele>
        <time>2024-08-01T12:26:10Z</time>
      </trkpt>
      <trkpt lat="45.59699" lon="3.85985">
        <ele>1263</ele>
        <time>2024-08-01T12:26:52Z</time>
      </trkpt>
      <trkpt lat="45.59738" lon="3.85926">
        <ele>1266</ele>
        <time>2024-08-01T12:27:37Z</time>
      </trkpt>
      <trkpt lat="45.59751" lon="3.85886">
        <ele>1268</ele>
        <time>2024-08-01T12:28:02Z</time>
      </trkpt>
      <trkpt lat="45.59756" lon="3.85857">
        <ele>1269</ele>
        <time>2024-08-01T12:28:19Z</time>
      </trkpt>
      <trkpt lat="45.59767" lon="3.85825">
        <ele>1270</ele>
        <time>2024-08-01T12:28:39Z</time>
      </trkpt>
      <trkpt lat="45.59793" lon="3.85781">
        <ele>1273</ele>
        <time>2024-08-01T12:29:11Z</time>
      </trkpt>
      <trkpt lat="45.5986" lon="3.85717">
        <ele>1283</ele>
        <time>2024-08-01T12:30:15Z</time>
      </trkpt>
      <trkpt lat="45.59881" lon="3.85676">
        <ele>1285</ele>
        <time>2024-08-01T12:30:44Z</time>
      </trkpt>
      <trkpt lat="45.59907" lon="3.85641">
        <ele>1287</ele>
        <time>2024-08-01T12:31:13Z</time>
      </trkpt>
      <trkpt lat="45.59924" lon="3.8566">
        <ele>1294</ele>
        <time>2024-08-01T12:31:30Z</time>
      </trkpt>
      <trkpt lat="45.59931" lon="3.85745">
        <ele>1300</ele>
        <time>2024-08-01T12:32:18Z</time>
      </trkpt>
      <trkpt lat="45.59944" lon="3.85765">
        <ele>1302</ele>
        <time>2024-08-01T12:32:33Z</time>
      </trkpt>
      <trkpt lat="45.59975" lon="3.85739">
        <ele>1308</ele>
        <time>2024-08-01T12:33:02Z</time>
      </trkpt>
      <trkpt lat="45.60018" lon="3.85735">
        <ele>1315</ele>
        <time>2024-08-01T12:33:36Z</time>
      </trkpt>
      <trkpt lat="45.60071" lon="3.85724">
        <ele>1322</ele>
        <time>2024-08-01T12:34:19Z</time>
      </trkpt>
      <trkpt lat="45.60098" lon="3.85715">
        <ele>1326</ele>
        <time>2024-08-01T12:34:41Z</time>
      </trkpt>
      <trkpt lat="45.60129" lon="3.85682">
        <ele>1332</ele>
        <time>2024-08-01T12:35:12Z</time>
      </trkpt>
      <trkpt lat="45.60161" lon="3.85624">
        <ele>1339</ele>
        <time>2024-08-01T12:35:54Z</time>
      </trkpt>
      <trkpt lat="45.60231" lon="3.85598">
        <ele>1350</ele>
        <time>2024-08-01T12:36:52Z</time>
      </trkpt>
      <trkpt lat="45.60323" lon="3.85553">
        <ele>1361</ele>
        <time>2024-08-01T12:38:09Z</time>
      </trkpt>
      <trkpt lat="45.60396" lon="3.85543">
        <ele>1368</ele>
        <time>2024-08-01T12:39:08Z</time>
      </trkpt>
      <trkpt lat="45.60574" lon="3.85579">
        <ele>1378</ele>
        <time>2024-08-01T12:41:32Z</time>
      </trkpt>
      <trkpt lat="45.60799" lon="3.85537">
        <ele>1386</ele>
        <time>2024-08-01T12:44:34Z</time>
      </trkpt>
      <trkpt lat="45.60913" lon="3.84725">
        <ele>1425</ele>
        <time>2024-08-01T12:52:18Z</time>
      </trkpt>
      <trkpt lat="45.60901" lon="3.84697">
        <ele>1424</ele>
        <time>2024-08-01T12:52:36Z</time>
      </trkpt>
      <trkpt lat="45.60889" lon="3.8465">
        <ele>1423</ele>
        <time>2024-08-01T12:53:04Z</time>
      </trkpt>
      <trkpt lat="45.60857" lon="3.84614">
        <ele>1421</ele>
        <time>2024-08-01T12:53:37Z</time>
      </trkpt>
      <trkpt lat="45.60766" lon="3.8441">
        <ele>1412</ele>
        <time>2024-08-01T12:55:52Z</time>
      </trkpt>
      <trkpt lat="45.6076" lon="3.84358">
        <ele>1415</ele>
        <time>2024-08-01T12:56:22Z</time>
      </trkpt>
      <trkpt lat="45.60808" lon="3.84373">
        <ele>1417</ele>
        <time>2024-08-01T12:57:01Z</time>
      </trkpt>
      <trkpt lat="45.61025" lon="3.84366">
        <ele>1420</ele>
        <time>2024-08-01T12:59:55Z</time>
      </trkpt>
      <trkpt lat="45.61219" lon="3.8433">
        <ele>1415</ele>
        <time>2024-08-01T13:02:32Z</time>
      </trkpt>
      <trkpt lat="45.61306" lon="3.84304">
        <ele>1414</ele>
        <time>2024-08-01T13:03:43Z</time>
      </trkpt>
      <trkpt lat="45.61363" lon="3.84301">
        <ele>1414</ele>
        <time>2024-08-01T13:04:28Z</time>
      </trkpt>
      <trkpt lat="45.61417" lon="3.84285">
        <ele>1416</ele>
        <time>2024-08-01T13:05:13Z</time>
      </trkpt>
      <trkpt lat="45.61544" lon="3.84295">
        <ele>1421</ele>
        <time>2024-08-01T13:06:54Z</time>
      </trkpt>
      <trkpt lat="45.61575" lon="3.84328">
        <ele>1423</ele>
        <time>2024-08-01T13:07:25Z</time>
      </trkpt>
      <trkpt lat="45.61605" lon="3.84433">
        <ele>1425</ele>
        <time>2024-08-01T13:08:29Z</time>
      </trkpt>
      <trkpt lat="45.61626" lon="3.84487">
        <ele>1427</ele>
        <time>2024-08-01T13:09:03Z</time>
      </trkpt>
      <trkpt lat="45.61663" lon="3.84575">
        <ele>1430</ele>
        <time>2024-08-01T13:10:01Z</time>
      </trkpt>
      <trkpt lat="45.61653" lon="3.84719">
        <ele>1430</ele>
        <time>2024-08-01T13:11:22Z</time>
      </trkpt>
      <trkpt lat="45.61675" lon="3.84783">
        <ele>1427</ele>
        <time>2024-08-01T13:12:02Z</time>
      </trkpt>
      <trkpt lat="45.61752" lon="3.84916">
        <ele>1416</ele>
        <time>2024-08-01T13:13:39Z</time>
      </trkpt>
      <trkpt lat="45.61896" lon="3.85092">
        <ele>1411</ele>
        <time>2024-08-01T13:16:10Z</time>
      </trkpt>
      <trkpt lat="45.6195" lon="3.85097">
        <ele>1410</ele>
        <time>2024-08-01T13:16:54Z</time>
      </trkpt>
      <trkpt lat="45.61992" lon="3.85126">
        <ele>1408</ele>
        <time>2024-08-01T13:17:31Z</time>
      </trkpt>
      <trkpt lat="45.62055" lon="3.85139">
        <ele>1405</ele>
        <time>2024-08-01T13:18:22Z</time>
      </trkpt>
      <trkpt lat="45.62155" lon="3.85108">
        <ele>1404</ele>
        <time>2024-08-01T13:19:44Z</time>
      </trkpt>
      <trkpt lat="45.62171" lon="3.85119">
        <ele>1402</ele>
        <time>2024-08-01T13:19:58Z</time>
      </trkpt>
      <trkpt lat="45.62213" lon="3.85174">
        <ele>1397</ele>
        <time>2024-08-01T13:20:44Z</time>
      </trkpt>
      <trkpt lat="45.62241" lon="3.85236">
        <ele>1393</ele>
        <time>2024-08-01T13:21:25Z</time>
      </trkpt>
      <trkpt lat="45.62284" lon="3.85339">
        <ele>1389</ele>
        <time>2024-08-01T13:22:32Z</time>
      </trkpt>
      <trkpt lat="45.62329" lon="3.85494">
        <ele>1384</ele>
        <time>2024-08-01T13:24:06Z</time>
      </trkpt>
      <trkpt lat="45.62354" lon="3.85551">
        <ele>1383</ele>
        <time>2024-08-01T13:24:44Z</time>
      </trkpt>
      <trkpt lat="45.62381" lon="3.85631">
        <ele>1381</ele>
        <time>2024-08-01T13:25:34Z</time>
      </trkpt>
      <trkpt lat="45.62442" lon="3.85735">
        <ele>1382</ele>
        <time>2024-08-01T13:26:50Z</time>
      </trkpt>
      <trkpt lat="45.62468" lon="3.85796">
        <ele>1382</ele>
        <time>2024-08-01T13:27:30Z</time>
      </trkpt>
      <trkpt lat="45.62492" lon="3.85842">
        <ele>1382</ele>
        <time>2024-08-01T13:28:02Z</time>
      </trkpt>
      <trkpt lat="45.626" lon="3.86001">
        <ele>1389</ele>
        <time>2024-08-01T13:30:06Z</time>
      </trkpt>
      <trkpt lat="45.6273" lon="3.86112">
        <ele>1405</ele>
        <time>2024-08-01T13:32:07Z</time>
      </trkpt>
      <trkpt lat="45.62901" lon="3.86133">
        <ele>1411</ele>
        <time>2024-08-01T13:34:24Z</time>
      </trkpt>
      <trkpt lat="45.63056" lon="3.86129">
        <ele>1400</ele>
        <time>2024-08-01T13:36:29Z</time>
      </trkpt>
      <trkpt lat="45.63271" lon="3.86401">
        <ele>1362</ele>
        <time>2024-08-01T13:40:18Z</time>
      </trkpt>
      <trkpt lat="45.63292" lon="3.86421">
        <ele>1361</ele>
        <time>2024-08-01T13:40:39Z</time>
      </trkpt>
      <trkpt lat="45.63307" lon="3.86424">
        <ele>1360</ele>
        <time>2024-08-01T13:40:51Z</time>
      </trkpt>
      <trkpt lat="45.63299" lon="3.86341">
        <ele>1359</ele>
        <time>2024-08-01T13:41:38Z</time>
      </trkpt>
      <trkpt lat="45.63314" lon="3.86331">
        <ele>1358</ele>
        <time>2024-08-01T13:41:51Z</time>
      </trkpt>
      <trkpt lat="45.63346" lon="3.86185">
        <ele>1351</ele>
        <time>2024-08-01T13:43:17Z</time>
      </trkpt>
      <trkpt lat="45.63374" lon="3.86175">
        <ele>1346</ele>
        <time>2024-08-01T13:43:40Z</time>
      </trkpt>
      <trkpt lat="45.63412" lon="3.86139">
        <ele>1340</ele>
        <time>2024-08-01T13:44:16Z</time>
      </trkpt>
      <trkpt lat="45.63479" lon="3.86078">
        <ele>1331</ele>
        <time>2024-08-01T13:45:20Z</time>
      </trkpt>
      <trkpt lat="45.63494" lon="3.86001">
        <ele>1326</ele>
        <time>2024-08-01T13:46:05Z</time>
      </trkpt>
      <trkpt lat="45.63493" lon="3.85956">
        <ele>1323</ele>
        <time>2024-08-01T13:46:30Z</time>
      </trkpt>
      <trkpt lat="45.63484" lon="3.85928">
        <ele>1322</ele>
        <time>2024-08-01T13:46:47Z</time>
      </trkpt>
      <trkpt lat="45.63482" lon="3.85863">
        <ele>1312</ele>
        <time>2024-08-01T13:47:23Z</time>
      </trkpt>
      <trkpt lat="45.63478" lon="3.8582">
        <ele>1304</ele>
        <time>2024-08-01T13:47:48Z</time>
      </trkpt>
      <trkpt lat="45.63437" lon="3.85678">
        <ele>1284</ele>
        <time>2024-08-01T13:49:14Z</time>
      </trkpt>
      <trkpt lat="45.63532" lon="3.85663">
        <ele>1251</ele>
        <time>2024-08-01T13:50:30Z</time>
      </trkpt>
      <trkpt lat="45.63511" lon="3.85631">
        <ele>1251</ele>
        <time>2024-08-01T13:50:55Z</time>
      </trkpt>
      <trkpt lat="45.63494" lon="3.85564">
        <ele>1242</ele>
        <time>2024-08-01T13:51:35Z</time>
      </trkpt>
      <trkpt lat="45.6346" lon="3.85496">
        <ele>1236</ele>
        <time>2024-08-01T13:52:22Z</time>
      </trkpt>
      <trkpt lat="45.63411" lon="3.85425">
        <ele>1237</ele>
        <time>2024-08-01T13:53:17Z</time>
      </trkpt>
      <trkpt lat="45.63398" lon="3.85348">
        <ele>1236</ele>
        <time>2024-08-01T13:54:02Z</time>
      </trkpt>
      <trkpt lat="45.6343" lon="3.85328">
        <ele>1230</ele>
        <time>2024-08-01T13:54:30Z</time>
      </trkpt>
      <trkpt lat="45.63467" lon="3.85354">
        <ele>1228</ele>
        <time>2024-08-01T13:55:03Z</time>
      </trkpt>
      <trkpt lat="45.635" lon="3.85418">
        <ele>1216</ele>
        <time>2024-08-01T13:55:47Z</time>
      </trkpt>
      <trkpt lat="45.63555" lon="3.85453">
        <ele>1217</ele>
        <time>2024-08-01T13:56:35Z</time>
      </trkpt>
      <trkpt lat="45.63587" lon="3.85458">
        <ele>1217</ele>
        <time>2024-08-01T13:57:01Z</time>
      </trkpt>
      <trkpt lat="45.63616" lon="3.85499">
        <ele>1219</ele>
        <time>2024-08-01T13:57:34Z</time>
      </trkpt>
      <trkpt lat="45.63623" lon="3.8553">
        <ele>1218</ele>
        <time>2024-08-01T13:57:52Z</time>
      </trkpt>
      <trkpt lat="45.63645" lon="3.85571">
        <ele>1214</ele>
        <time>2024-08-01T13:58:21Z</time>
      </trkpt>
      <trkpt lat="45.63676" lon="3.85596">
        <ele>1212</ele>
        <time>2024-08-01T13:58:50Z</time>
      </trkpt>
      <trkpt lat="45.63723" lon="3.85659">
        <ele>1210</ele>
        <time>2024-08-01T13:59:41Z</time>
      </trkpt>
      <trkpt lat="45.63766" lon="3.85747">
        <ele>1202</ele>
        <time>2024-08-01T14:00:41Z</time>
      </trkpt>
      <trkpt lat="45.638" lon="3.85774">
        <ele>1211</ele>
        <time>2024-08-01T14:01:12Z</time>
      </trkpt>
      <trkpt lat="45.63871" lon="3.85972">
        <ele>1193</ele>
        <time>2024-08-01T14:03:17Z</time>
      </trkpt>
      <trkpt lat="45.6395" lon="3.86103">
        <ele>1180</ele>
        <time>2024-08-01T14:04:54Z</time>
      </trkpt>
      <trkpt lat="45.64004" lon="3.86167">
        <ele>1164</ele>
        <time>2024-08-01T14:05:50Z</time>
      </trkpt>
      <trkpt lat="45.64045" lon="3.86228">
        <ele>1157</ele>
        <time>2024-08-01T14:06:37Z</time>
      </trkpt>
      <trkpt lat="45.6409" lon="3.86237">
        <ele>1156</ele>
        <time>2024-08-01T14:07:14Z</time>
      </trkpt>
      <trkpt lat="45.64105" lon="3.86252">
        <ele>1155</ele>
        <time>2024-08-01T14:07:28Z</time>
      </trkpt>
      <trkpt lat="45.64152" lon="3.86511">
        <ele>1122</ele>
        <time>2024-08-01T14:09:58Z</time>
      </trkpt>
      <trkpt lat="45.6415" lon="3.8651">
        <ele>1121</ele>
        <time>2024-08-01T14:10:00Z</time>
      </trkpt>
      <trkpt lat="45.64197" lon="3.86577">
        <ele>1121</ele>
        <time>2024-08-01T14:10:53Z</time>
      </trkpt>
      <trkpt lat="45.64234" lon="3.8661">
        <ele>1125</ele>
        <time>2024-08-01T14:11:28Z</time>
      </trkpt>
      <trkpt lat="45.64271" lon="3.86683">
        <ele>1123</ele>
        <time>2024-08-01T14:12:18Z</time>
      </trkpt>
      <trkpt lat="45.64304" lon="3.86749">
        <ele>1124</ele>
        <time>2024-08-01T14:13:04Z</time>
      </trkpt>
      <trkpt lat="45.64306" lon="3.86782">
        <ele>1116</ele>
        <time>2024-08-01T14:13:22Z</time>
      </trkpt>
      <trkpt lat="45.64347" lon="3.86881">
        <ele>1110</ele>
        <time>2024-08-01T14:14:27Z</time>
      </trkpt>
      <trkpt lat="45.64353" lon="3.86939">
        <ele>1102</ele>
        <time>2024-08-01T14:14:59Z</time>
      </trkpt>
      <trkpt lat="45.64362" lon="3.86994">
        <ele>1097</ele>
        <time>2024-08-01T14:15:31Z</time>
      </trkpt>
      <trkpt lat="45.64368" lon="3.87095">
        <ele>1087</ele>
        <time>2024-08-01T14:16:28Z</time>
      </trkpt>
      <trkpt lat="45.64361" lon="3.87139">
        <ele>1078</ele>
        <time>2024-08-01T14:16:53Z</time>
      </trkpt>
      <trkpt lat="45.64377" lon="3.87184">
        <ele>1077</ele>
        <time>2024-08-01T14:17:21Z</time>
      </trkpt>
      <trkpt lat="45.64399" lon="3.87219">
        <ele>1076</ele>
        <time>2024-08-01T14:17:48Z</time>
      </trkpt>
      <trkpt lat="45.64414" lon="3.87244">
        <ele>1074</ele>
        <time>2024-08-01T14:18:06Z</time>
      </trkpt>
      <trkpt lat="45.64462" lon="3.87278">
        <ele>1081</ele>
        <time>2024-08-01T14:18:49Z</time>
      </trkpt>
      <trkpt lat="45.64465" lon="3.87289">
        <ele>1079</ele>
        <time>2024-08-01T14:18:56Z</time>
      </trkpt>
      <trkpt lat="45.64633" lon="3.8745">
        <ele>1066</ele>
        <time>2024-08-01T14:21:38Z</time>
      </trkpt>
      <trkpt lat="45.64692" lon="3.87463">
        <ele>1062</ele>
        <time>2024-08-01T14:22:25Z</time>
      </trkpt>
      <trkpt lat="45.64717" lon="3.87445">
        <ele>1062</ele>
        <time>2024-08-01T14:22:48Z</time>
      </trkpt>
      <trkpt lat="45.64742" lon="3.87363">
        <ele>1069</ele>
        <time>2024-08-01T14:23:38Z</time>
      </trkpt>
      <trkpt lat="45.64734" lon="3.8733">
        <ele>1077</ele>
        <time>2024-08-01T14:23:57Z</time>
      </trkpt>
      <trkpt lat="45.64754" lon="3.87132">
        <ele>1076</ele>
        <time>2024-08-01T14:25:49Z</time>
      </trkpt>
      <trkpt lat="45.6478" lon="3.87062">
        <ele>1074</ele>
        <time>2024-08-01T14:26:34Z</time>
      </trkpt>
      <trkpt lat="45.64825" lon="3.87018">
        <ele>1070</ele>
        <time>2024-08-01T14:27:17Z</time>
      </trkpt>
      <trkpt lat="45.64861" lon="3.87002">
        <ele>1066</ele>
        <time>2024-08-01T14:27:48Z</time>
      </trkpt>
      <trkpt lat="45.6491" lon="3.86987">
        <ele>1059</ele>
        <time>2024-08-01T14:28:28Z</time>
      </trkpt>
      <trkpt lat="45.64871" lon="3.8703">
        <ele>1056</ele>
        <time>2024-08-01T14:29:07Z</time>
      </trkpt>
      <trkpt lat="45.64846" lon="3.87078">
        <ele>1046</ele>
        <time>2024-08-01T14:29:41Z</time>
      </trkpt>
      <trkpt lat="45.64817" lon="3.87144">
        <ele>1042</ele>
        <time>2024-08-01T14:30:24Z</time>
      </trkpt>
      <trkpt lat="45.64853" lon="3.87293">
        <ele>1023</ele>
        <time>2024-08-01T14:31:52Z</time>
      </trkpt>
      <trkpt lat="45.6485" lon="3.87304">
        <ele>1023</ele>
        <time>2024-08-01T14:31:59Z</time>
      </trkpt>
      <trkpt lat="45.64857" lon="3.87358">
        <ele>1020</ele>
        <time>2024-08-01T14:32:30Z</time>
      </trkpt>
      <trkpt lat="45.64855" lon="3.87437">
        <ele>1013</ele>
        <time>2024-08-01T14:33:14Z</time>
      </trkpt>
      <trkpt lat="45.6484" lon="3.87502">
        <ele>1009</ele>
        <time>2024-08-01T14:33:52Z</time>
      </trkpt>
      <trkpt lat="45.64815" lon="3.87564">
        <ele>1007</ele>
        <time>2024-08-01T14:34:32Z</time>
      </trkpt>
      <trkpt lat="45.64803" lon="3.87614">
        <ele>1001</ele>
        <time>2024-08-01T14:35:02Z</time>
      </trkpt>
      <trkpt lat="45.6478" lon="3.87633">
        <ele>1001</ele>
        <time>2024-08-01T14:35:23Z</time>
      </trkpt>
      <trkpt lat="45.64758" lon="3.87666">
        <ele>996</ele>
        <time>2024-08-01T14:35:49Z</time>
      </trkpt>
      <trkpt lat="45.6475" lon="3.87691">
        <ele>993</ele>
        <time>2024-08-01T14:36:04Z</time>
      </trkpt>
      <trkpt lat="45.64699" lon="3.87749">
        <ele>991</ele>
        <time>2024-08-01T14:36:56Z</time>
      </trkpt>
      <trkpt lat="45.64689" lon="3.87767">
        <ele>992</ele>
        <time>2024-08-01T14:37:09Z</time>
      </trkpt>
      <trkpt lat="45.6473" lon="3.87837">
        <ele>992</ele>
        <time>2024-08-01T14:38:00Z</time>
      </trkpt>
      <trkpt lat="45.64792" lon="3.87867">
        <ele>995</ele>
        <time>2024-08-01T14:38:53Z</time>
      </trkpt>
      <trkpt lat="45.6489" lon="3.87861">
        <ele>989</ele>
        <time>2024-08-01T14:40:11Z</time>
      </trkpt>
      <trkpt lat="45.64964" lon="3.87935">
        <ele>1001</ele>
        <time>2024-08-01T14:41:24Z</time>
      </trkpt>
      <trkpt lat="45.65107" lon="3.87931">
        <ele>993</ele>
        <time>2024-08-01T14:43:18Z</time>
      </trkpt>
      <trkpt lat="45.65207" lon="3.8792">
        <ele>986</ele>
        <time>2024-08-01T14:44:38Z</time>
      </trkpt>
      <trkpt lat="45.65309" lon="3.87996">
        <ele>983</ele>
        <time>2024-08-01T14:46:11Z</time>
      </trkpt>
      <trkpt lat="45.65331" lon="3.88051">
        <ele>987</ele>
        <time>2024-08-01T14:46:46Z</time>
      </trkpt>
      <trkpt lat="45.65389" lon="3.88199">
        <ele>992</ele>
        <time>2024-08-01T14:48:21Z</time>
      </trkpt>
      <trkpt lat="45.65442" lon="3.88282">
        <ele>982</ele>
        <time>2024-08-01T14:49:24Z</time>
      </trkpt>
      <trkpt lat="45.6546" lon="3.88364">
        <ele>982</ele>
        <time>2024-08-01T14:50:12Z</time>
      </trkpt>
      <trkpt lat="45.65459" lon="3.8849">
        <ele>985</ele>
        <time>2024-08-01T14:51:22Z</time>
      </trkpt>
      <trkpt lat="45.65477" lon="3.88573">
        <ele>978</ele>
        <time>2024-08-01T14:52:11Z</time>
      </trkpt>
      <trkpt lat="45.65474" lon="3.88706">
        <ele>978</ele>
        <time>2024-08-01T14:53:26Z</time>
      </trkpt>
      <trkpt lat="45.65447" lon="3.88802">
        <ele>979</ele>
        <time>2024-08-01T14:54:24Z</time>
      </trkpt>
      <trkpt lat="45.65359" lon="3.88905">
        <ele>982</ele>
        <time>2024-08-01T14:55:55Z</time>
      </trkpt>
      <trkpt lat="45.65296" lon="3.89015">
        <ele>984</ele>
        <time>2024-08-01T14:57:14Z</time>
      </trkpt>
      <trkpt lat="45.65311" lon="3.89141">
        <ele>981</ele>
        <time>2024-08-01T14:58:26Z</time>
      </trkpt>
      <trkpt lat="45.65308" lon="3.89164">
        <ele>982</ele>
        <time>2024-08-01T14:58:39Z</time>
      </trkpt>
      <trkpt lat="45.65251" lon="3.89292">
        <ele>988</ele>
        <time>2024-08-01T15:00:04Z</time>
      </trkpt>
      <trkpt lat="45.65231" lon="3.89355">
        <ele>992</ele>
        <time>2024-08-01T15:00:42Z</time>
      </trkpt>
      <trkpt lat="45.65248" lon="3.89381">
        <ele>991</ele>
        <time>2024-08-01T15:01:02Z</time>
      </trkpt>
      <trkpt lat="45.65315" lon="3.89352">
        <ele>985</ele>
        <time>2024-08-01T15:01:58Z</time>
      </trkpt>
      <trkpt lat="45.65386" lon="3.89361">
        <ele>983</ele>
        <time>2024-08-01T15:02:55Z</time>
      </trkpt>
      <trkpt lat="45.6541" lon="3.89391">
        <ele>986</ele>
        <time>2024-08-01T15:03:21Z</time>
      </trkpt>
      <trkpt lat="45.65408" lon="3.89432">
        <ele>988</ele>
        <time>2024-08-01T15:03:44Z</time>
      </trkpt>
      <trkpt lat="45.65376" lon="3.89498">
        <ele>986</ele>
        <time>2024-08-01T15:04:29Z</time>
      </trkpt>
      <trkpt lat="45.65342" lon="3.89537">
        <ele>985</ele>
        <time>2024-08-01T15:05:04Z</time>
      </trkpt>
      <trkpt lat="45.65293" lon="3.89594">
        <ele>984</ele>
        <time>2024-08-01T15:05:54Z</time>
      </trkpt>
      <trkpt lat="45.65248" lon="3.89681">
        <ele>986</ele>
        <time>2024-08-01T15:06:55Z</time>
      </trkpt>
      <trkpt lat="45.6523" lon="3.89727">
        <ele>987</ele>
        <time>2024-08-01T15:07:24Z</time>
      </trkpt>
      <trkpt lat="45.65208" lon="3.89755">
        <ele>991</ele>
        <time>2024-08-01T15:07:48Z</time>
      </trkpt>
      <trkpt lat="45.652" lon="3.89733">
        <ele>995</ele>
        <time>2024-08-01T15:08:02Z</time>
      </trkpt>
      <trkpt lat="45.65198" lon="3.89673">
        <ele>1001</ele>
        <time>2024-08-01T15:08:36Z</time>
      </trkpt>
      <trkpt lat="45.65189" lon="3.89624">
        <ele>1005</ele>
        <time>2024-08-01T15:09:04Z</time>
      </trkpt>
      <trkpt lat="45.65149" lon="3.89599">
        <ele>1014</ele>
        <time>2024-08-01T15:09:39Z</time>
      </trkpt>
      <trkpt lat="45.65117" lon="3.89601">
        <ele>1020</ele>
        <time>2024-08-01T15:10:05Z</time>
      </trkpt>
      <trkpt lat="45.6509" lon="3.89588">
        <ele>1024</ele>
        <time>2024-08-01T15:10:27Z</time>
      </trkpt>
      <trkpt lat="45.65085" lon="3.89563">
        <ele>1025</ele>
        <time>2024-08-01T15:10:42Z</time>
      </trkpt>
      <trkpt lat="45.65084" lon="3.89534">
        <ele>1025</ele>
        <time>2024-08-01T15:10:58Z</time>
      </trkpt>
      <trkpt lat="45.65084" lon="3.89493">
        <ele>1026</ele>
        <time>2024-08-01T15:11:21Z</time>
      </trkpt>
      <trkpt lat="45.65081" lon="3.89394">
        <ele>1033</ele>
        <time>2024-08-01T15:12:17Z</time>
      </trkpt>
      <trkpt lat="45.65084" lon="3.89383">
        <ele>1032</ele>
        <time>2024-08-01T15:12:23Z</time>
      </trkpt>
      <trkpt lat="45.65085" lon="3.89361">
        <ele>1033</ele>
        <time>2024-08-01T15:12:35Z</time>
      </trkpt>
      <trkpt lat="45.65049" lon="3.89275">
        <ele>1043</ele>
        <time>2024-08-01T15:13:32Z</time>
      </trkpt>
      <trkpt lat="45.65027" lon="3.89255">
        <ele>1047</ele>
        <time>2024-08-01T15:13:52Z</time>
      </trkpt>
      <trkpt lat="45.65013" lon="3.89241">
        <ele>1049</ele>
        <time>2024-08-01T15:14:06Z</time>
      </trkpt>
      <trkpt lat="45.65007" lon="3.89239">
        <ele>1051</ele>
        <time>2024-08-01T15:14:11Z</time>
      </trkpt>
      <trkpt lat="45.65" lon="3.89227">
        <ele>1052</ele>
        <time>2024-08-01T15:14:20Z</time>
      </trkpt>
      <trkpt lat="45.64949" lon="3.89184">
        <ele>1063</ele>
        <time>2024-08-01T15:15:07Z</time>
      </trkpt>
      <trkpt lat="45.64916" lon="3.89146">
        <ele>1069</ele>
        <time>2024-08-01T15:15:41Z</time>
      </trkpt>
      <trkpt lat="45.64907" lon="3.89164">
        <ele>1072</ele>
        <time>2024-08-01T15:15:54Z</time>
      </trkpt>
      <trkpt lat="45.64889" lon="3.89264">
        <ele>1078</ele>
        <time>2024-08-01T15:16:51Z</time>
      </trkpt>
      <trkpt lat="45.64873" lon="3.89281">
        <ele>1082</ele>
        <time>2024-08-01T15:17:07Z</time>
      </trkpt>
      <trkpt lat="45.64873" lon="3.8929">
        <ele>1081</ele>
        <time>2024-08-01T15:17:12Z</time>
      </trkpt>
      <trkpt lat="45.64864" lon="3.8931">
        <ele>1083</ele>
        <time>2024-08-01T15:17:26Z</time>
      </trkpt>
      <trkpt lat="45.64853" lon="3.89301">
        <ele>1085</ele>
        <time>2024-08-01T15:17:36Z</time>
      </trkpt>
      <trkpt lat="45.64847" lon="3.89287">
        <ele>1087</ele>
        <time>2024-08-01T15:17:45Z</time>
      </trkpt>
      <trkpt lat="45.64828" lon="3.89236">
        <ele>1091</ele>
        <time>2024-08-01T15:18:17Z</time>
      </trkpt>
      <trkpt lat="45.64822" lon="3.89223">
        <ele>1092</ele>
        <time>2024-08-01T15:18:26Z</time>
      </trkpt>
      <trkpt lat="45.64795" lon="3.89141">
        <ele>1096</ele>
        <time>2024-08-01T15:19:17Z</time>
      </trkpt>
      <trkpt lat="45.64777" lon="3.89096">
        <ele>1098</ele>
        <time>2024-08-01T15:19:46Z</time>
      </trkpt>
      <trkpt lat="45.64775" lon="3.89084">
        <ele>1098</ele>
        <time>2024-08-01T15:19:53Z</time>
      </trkpt>
      <trkpt lat="45.64754" lon="3.89037">
        <ele>1101</ele>
        <time>2024-08-01T15:20:24Z</time>
      </trkpt>
      <trkpt lat="45.64747" lon="3.89015">
        <ele>1102</ele>
        <time>2024-08-01T15:20:37Z</time>
      </trkpt>
      <trkpt lat="45.64733" lon="3.88937">
        <ele>1103</ele>
        <time>2024-08-01T15:21:23Z</time>
      </trkpt>
      <trkpt lat="45.64727" lon="3.88901">
        <ele>1103</ele>
        <time>2024-08-01T15:21:43Z</time>
      </trkpt>
      <trkpt lat="45.64679" lon="3.88844">
        <ele>1113</ele>
        <time>2024-08-01T15:22:33Z</time>
      </trkpt>
      <trkpt lat="45.64671" lon="3.88795">
        <ele>1116</ele>
        <time>2024-08-01T15:23:01Z</time>
      </trkpt>
      <trkpt lat="45.64671" lon="3.88748">
        <ele>1118</ele>
        <time>2024-08-01T15:23:28Z</time>
      </trkpt>
      <trkpt lat="45.64669" lon="3.88717">
        <ele>1119</ele>
        <time>2024-08-01T15:23:45Z</time>
      </trkpt>
      <trkpt lat="45.64643" lon="3.8856">
        <ele>1131</ele>
        <time>2024-08-01T15:25:15Z</time>
      </trkpt>
      <trkpt lat="45.64609" lon="3.88566">
        <ele>1135</ele>
        <time>2024-08-01T15:25:43Z</time>
      </trkpt>
      <trkpt lat="45.64544" lon="3.88616">
        <ele>1142</ele>
        <time>2024-08-01T15:26:42Z</time>
      </trkpt>
      <trkpt lat="45.64518" lon="3.8865">
        <ele>1146</ele>
        <time>2024-08-01T15:27:10Z</time>
      </trkpt>
      <trkpt lat="45.64492" lon="3.88653">
        <ele>1149</ele>
        <time>2024-08-01T15:27:31Z</time>
      </trkpt>
      <trkpt lat="45.64464" lon="3.88634">
        <ele>1152</ele>
        <time>2024-08-01T15:27:56Z</time>
      </trkpt>
      <trkpt lat="45.6443" lon="3.88627">
        <ele>1155</ele>
        <time>2024-08-01T15:28:23Z</time>
      </trkpt>
      <trkpt lat="45.64393" lon="3.88649">
        <ele>1161</ele>
        <time>2024-08-01T15:28:55Z</time>
      </trkpt>
      <trkpt lat="45.64381" lon="3.8866">
        <ele>1163</ele>
        <time>2024-08-01T15:29:07Z</time>
      </trkpt>
      <trkpt lat="45.64349" lon="3.88681">
        <ele>1169</ele>
        <time>2024-08-01T15:29:35Z</time>
      </trkpt>
      <trkpt lat="45.64331" lon="3.88699">
        <ele>1174</ele>
        <time>2024-08-01T15:29:53Z</time>
      </trkpt>
      <trkpt lat="45.6431" lon="3.88718">
        <ele>1180</ele>
        <time>2024-08-01T15:30:12Z</time>
      </trkpt>
      <trkpt lat="45.64267" lon="3.88706">
        <ele>1185</ele>
        <time>2024-08-01T15:30:48Z</time>
      </trkpt>
      <trkpt lat="45.64224" lon="3.88676">
        <ele>1188</ele>
        <time>2024-08-01T15:31:26Z</time>
      </trkpt>
      <trkpt lat="45.64194" lon="3.88666">
        <ele>1192</ele>
        <time>2024-08-01T15:31:51Z</time>
      </trkpt>
      <trkpt lat="45.64174" lon="3.88673">
        <ele>1196</ele>
        <time>2024-08-01T15:32:07Z</time>
      </trkpt>
      <trkpt lat="45.64165" lon="3.88663">
        <ele>1196</ele>
        <time>2024-08-01T15:32:16Z</time>
      </trkpt>
      <trkpt lat="45.64159" lon="3.88649">
        <ele>1196</ele>
        <time>2024-08-01T15:32:25Z</time>
      </trkpt>
      <trkpt lat="45.64083" lon="3.88558">
        <ele>1207</ele>
        <time>2024-08-01T15:33:45Z</time>
      </trkpt>
      <trkpt lat="45.64058" lon="3.88488">
        <ele>1207</ele>
        <time>2024-08-01T15:34:29Z</time>
      </trkpt>
      <trkpt lat="45.64032" lon="3.88443">
        <ele>1208</ele>
        <time>2024-08-01T15:35:01Z</time>
      </trkpt>
      <trkpt lat="45.63845" lon="3.88313">
        <ele>1232</ele>
        <time>2024-08-01T15:37:48Z</time>
      </trkpt>
      <trkpt lat="45.6378" lon="3.88286">
        <ele>1241</ele>
        <time>2024-08-01T15:38:42Z</time>
      </trkpt>
      <trkpt lat="45.63754" lon="3.88257">
        <ele>1241</ele>
        <time>2024-08-01T15:39:08Z</time>
      </trkpt>
      <trkpt lat="45.6369" lon="3.88181">
        <ele>1241</ele>
        <time>2024-08-01T15:40:15Z</time>
      </trkpt>
      <trkpt lat="45.63675" lon="3.8817">
        <ele>1241</ele>
        <time>2024-08-01T15:40:29Z</time>
      </trkpt>
      <trkpt lat="45.6364" lon="3.88161">
        <ele>1242</ele>
        <time>2024-08-01T15:40:57Z</time>
      </trkpt>
      <trkpt lat="45.63599" lon="3.8815">
        <ele>1242</ele>
        <time>2024-08-01T15:41:30Z</time>
      </trkpt>
      <trkpt lat="45.63575" lon="3.8815">
        <ele>1242</ele>
        <time>2024-08-01T15:41:50Z</time>
      </trkpt>
      <trkpt lat="45.63472" lon="3.88209">
        <ele>1245</ele>
        <time>2024-08-01T15:43:18Z</time>
      </trkpt>
      <trkpt lat="45.63404" lon="3.88238">
        <ele>1248</ele>
        <time>2024-08-01T15:44:15Z</time>
      </trkpt>
      <trkpt lat="45.63346" lon="3.88219">
        <ele>1253</ele>
        <time>2024-08-01T15:45:03Z</time>
      </trkpt>
      <trkpt lat="45.63315" lon="3.88213">
        <ele>1256</ele>
        <time>2024-08-01T15:45:28Z</time>
      </trkpt>
      <trkpt lat="45.63281" lon="3.88184">
        <ele>1257</ele>
        <time>2024-08-01T15:46:00Z</time>
      </trkpt>
      <trkpt lat="45.63253" lon="3.88149">
        <ele>1258</ele>
        <time>2024-08-01T15:46:29Z</time>
      </trkpt>
      <trkpt lat="45.63244" lon="3.88125">
        <ele>1258</ele>
        <time>2024-08-01T15:46:45Z</time>
      </trkpt>
      <trkpt lat="45.63238" lon="3.88066">
        <ele>1256</ele>
        <time>2024-08-01T15:47:18Z</time>
      </trkpt>
      <trkpt lat="45.63227" lon="3.88044">
        <ele>1257</ele>
        <time>2024-08-01T15:47:33Z</time>
      </trkpt>
      <trkpt lat="45.63173" lon="3.87967">
        <ele>1260</ele>
        <time>2024-08-01T15:48:34Z</time>
      </trkpt>
      <trkpt lat="45.63163" lon="3.87962">
        <ele>1260</ele>
        <time>2024-08-01T15:48:43Z</time>
      </trkpt>
      <trkpt lat="45.63166" lon="3.88015">
        <ele>1262</ele>
        <time>2024-08-01T15:49:13Z</time>
      </trkpt>
      <trkpt lat="45.63164" lon="3.8807">
        <ele>1266</ele>
        <time>2024-08-01T15:49:43Z</time>
      </trkpt>
      <trkpt lat="45.6317" lon="3.88126">
        <ele>1270</ele>
        <time>2024-08-01T15:50:15Z</time>
      </trkpt>
      <trkpt lat="45.63212" lon="3.88311">
        <ele>1278</ele>
        <time>2024-08-01T15:52:04Z</time>
      </trkpt>
      <trkpt lat="45.63246" lon="3.88441">
        <ele>1286</ele>
        <time>2024-08-01T15:53:22Z</time>
      </trkpt>
      <trkpt lat="45.63259" lon="3.88534">
        <ele>1289</ele>
        <time>2024-08-01T15:54:15Z</time>
      </trkpt>
      <trkpt lat="45.63282" lon="3.88613">
        <ele>1293</ele>
        <time>2024-08-01T15:55:03Z</time>
      </trkpt>
      <trkpt lat="45.63343" lon="3.88756">
        <ele>1298</ele>
        <time>2024-08-01T15:56:37Z</time>
      </trkpt>
      <trkpt lat="45.63362" lon="3.8891">
        <ele>1302</ele>
        <time>2024-08-01T15:58:04Z</time>
      </trkpt>
      <trkpt lat="45.63397" lon="3.89042">
        <ele>1305</ele>
        <time>2024-08-01T15:59:23Z</time>
      </trkpt>
      <trkpt lat="45.63416" lon="3.89141">
        <ele>1306</ele>
        <time>2024-08-01T16:00:21Z</time>
      </trkpt>
      <trkpt lat="45.6342" lon="3.89207">
        <ele>1306</ele>
        <time>2024-08-01T16:00:58Z</time>
      </trkpt>
      <trkpt lat="45.63412" lon="3.89307">
        <ele>1304</ele>
        <time>2024-08-01T16:01:54Z</time>
      </trkpt>
      <trkpt lat="45.63414" lon="3.89383">
        <ele>1301</ele>
        <time>2024-08-01T16:02:37Z</time>
      </trkpt>
      <trkpt lat="45.63422" lon="3.89476">
        <ele>1295</ele>
        <time>2024-08-01T16:03:29Z</time>
      </trkpt>
      <trkpt lat="45.63419" lon="3.89483">
        <ele>1294</ele>
        <time>2024-08-01T16:03:34Z</time>
      </trkpt>
      <trkpt lat="45.63381" lon="3.89461">
        <ele>1295</ele>
        <time>2024-08-01T16:04:06Z</time>
      </trkpt>
      <trkpt lat="45.63372" lon="3.89461">
        <ele>1295</ele>
        <time>2024-08-01T16:04:14Z</time>
      </trkpt>
      <trkpt lat="45.63187" lon="3.89334">
        <ele>1298</ele>
        <time>2024-08-01T16:06:58Z</time>
      </trkpt>
      <trkpt lat="45.63175" lon="3.89319">
        <ele>1299</ele>
        <time>2024-08-01T16:07:11Z</time>
      </trkpt>
      <trkpt lat="45.63083" lon="3.89237">
        <ele>1304</ele>
        <time>2024-08-01T16:08:38Z</time>
      </trkpt>
      <trkpt lat="45.63045" lon="3.89214">
        <ele>1306</ele>
        <time>2024-08-01T16:09:11Z</time>
      </trkpt>
      <trkpt lat="45.62976" lon="3.89161">
        <ele>1309</ele>
        <time>2024-08-01T16:10:13Z</time>
      </trkpt>
      <trkpt lat="45.62853" lon="3.89075">
        <ele>1313</ele>
        <time>2024-08-01T16:12:03Z</time>
      </trkpt>
      <trkpt lat="45.62835" lon="3.8912">
        <ele>1312</ele>
        <time>2024-08-01T16:12:32Z</time>
      </trkpt>
      <trkpt lat="45.62784" lon="3.8921">
        <ele>1306</ele>
        <time>2024-08-01T16:13:37Z</time>
      </trkpt>
      <trkpt lat="45.62755" lon="3.89322">
        <ele>1299</ele>
        <time>2024-08-01T16:14:44Z</time>
      </trkpt>
      <trkpt lat="45.62711" lon="3.89376">
        <ele>1302</ele>
        <time>2024-08-01T16:15:30Z</time>
      </trkpt>
      <trkpt lat="45.627" lon="3.89399">
        <ele>1304</ele>
        <time>2024-08-01T16:15:46Z</time>
      </trkpt>
      <trkpt lat="45.62692" lon="3.89405">
        <ele>1305</ele>
        <time>2024-08-01T16:15:53Z</time>
      </trkpt>
      <trkpt lat="45.62468" lon="3.8968">
        <ele>1320</ele>
        <time>2024-08-01T16:19:49Z</time>
      </trkpt>
      <trkpt lat="45.62426" lon="3.8974">
        <ele>1319</ele>
        <time>2024-08-01T16:20:37Z</time>
      </trkpt>
      <trkpt lat="45.62398" lon="3.89748">
        <ele>1320</ele>
        <time>2024-08-01T16:21:00Z</time>
      </trkpt>
      <trkpt lat="45.62227" lon="3.89782">
        <ele>1329</ele>
        <time>2024-08-01T16:23:18Z</time>
      </trkpt>
      <trkpt lat="45.62122" lon="3.89799">
        <ele>1338</ele>
        <time>2024-08-01T16:24:43Z</time>
      </trkpt>
      <trkpt lat="45.62012" lon="3.89689">
        <ele>1346</ele>
        <time>2024-08-01T16:26:30Z</time>
      </trkpt>
      <trkpt lat="45.6189" lon="3.89562">
        <ele>1350</ele>
        <time>2024-08-01T16:28:31Z</time>
      </trkpt>
      <trkpt lat="45.61875" lon="3.8955">
        <ele>1351</ele>
        <time>2024-08-01T16:28:45Z</time>
      </trkpt>
      <trkpt lat="45.61863" lon="3.89533">
        <ele>1352</ele>
        <time>2024-08-01T16:28:58Z</time>
      </trkpt>
      <trkpt lat="45.61813" lon="3.89483">
        <ele>1357</ele>
        <time>2024-08-01T16:29:47Z</time>
      </trkpt>
      <trkpt lat="45.61794" lon="3.89467">
        <ele>1360</ele>
        <time>2024-08-01T16:30:05Z</time>
      </trkpt>
      <trkpt lat="45.61752" lon="3.89426">
        <ele>1366</ele>
        <time>2024-08-01T16:30:45Z</time>
      </trkpt>
      <trkpt lat="45.61718" lon="3.89386">
        <ele>1370</ele>
        <time>2024-08-01T16:31:21Z</time>
      </trkpt>
      <trkpt lat="45.61727" lon="3.89284">
        <ele>1376</ele>
        <time>2024-08-01T16:32:18Z</time>
      </trkpt>
      <trkpt lat="45.61722" lon="3.89269">
        <ele>1377</ele>
        <time>2024-08-01T16:32:28Z</time>
      </trkpt>
      <trkpt lat="45.61713" lon="3.89264">
        <ele>1378</ele>
        <time>2024-08-01T16:32:35Z</time>
      </trkpt>
      <trkpt lat="45.61457" lon="3.89272">
        <ele>1378</ele>
        <time>2024-08-01T16:36:00Z</time>
      </trkpt>
      <trkpt lat="45.61372" lon="3.89272">
        <ele>1374</ele>
        <time>2024-08-01T16:37:08Z</time>
      </trkpt>
      <trkpt lat="45.61356" lon="3.89276">
        <ele>1373</ele>
        <time>2024-08-01T16:37:21Z</time>
      </trkpt>
      <trkpt lat="45.61316" lon="3.89273">
        <ele>1371</ele>
        <time>2024-08-01T16:37:53Z</time>
      </trkpt>
      <trkpt lat="45.61281" lon="3.89272">
        <ele>1369</ele>
        <time>2024-08-01T16:38:21Z</time>
      </trkpt>
      <trkpt lat="45.61251" lon="3.89309">
        <ele>1369</ele>
        <time>2024-08-01T16:38:53Z</time>
      </trkpt>
      <trkpt lat="45.61195" lon="3.89424">
        <ele>1364</ele>
        <time>2024-08-01T16:40:12Z</time>
      </trkpt>
      <trkpt lat="45.61179" lon="3.89446">
        <ele>1362</ele>
        <time>2024-08-01T16:40:29Z</time>
      </trkpt>
      <trkpt lat="45.61174" lon="3.89461">
        <ele>1361</ele>
        <time>2024-08-01T16:40:39Z</time>
      </trkpt>
      <trkpt lat="45.61161" lon="3.89474">
        <ele>1360</ele>
        <time>2024-08-01T16:40:51Z</time>
      </trkpt>
      <trkpt lat="45.61125" lon="3.89511">
        <ele>1358</ele>
        <time>2024-08-01T16:41:27Z</time>
      </trkpt>
      <trkpt lat="45.6104" lon="3.89522">
        <ele>1354</ele>
        <time>2024-08-01T16:42:35Z</time>
      </trkpt>
      <trkpt lat="45.60953" lon="3.89557">
        <ele>1347</ele>
        <time>2024-08-01T16:43:48Z</time>
      </trkpt>
      <trkpt lat="45.60965" lon="3.89463">
        <ele>1350</ele>
        <time>2024-08-01T16:44:41Z</time>
      </trkpt>
      <trkpt lat="45.60962" lon="3.89387">
        <ele>1353</ele>
        <time>2024-08-01T16:45:24Z</time>
      </trkpt>
      <trkpt lat="45.60956" lon="3.89367">
        <ele>1353</ele>
        <time>2024-08-01T16:45:36Z</time>
      </trkpt>
      <trkpt lat="45.60956" lon="3.89348">
        <ele>1354</ele>
        <time>2024-08-01T16:45:47Z</time>
      </trkpt>
      <trkpt lat="45.60936" lon="3.89282">
        <ele>1356</ele>
        <time>2024-08-01T16:46:27Z</time>
      </trkpt>
      <trkpt lat="45.60905" lon="3.89236">
        <ele>1358</ele>
        <time>2024-08-01T16:47:03Z</time>
      </trkpt>
      <trkpt lat="45.60801" lon="3.89122">
        <ele>1365</ele>
        <time>2024-08-01T16:48:48Z</time>
      </trkpt>
      <trkpt lat="45.60737" lon="3.89051">
        <ele>1368</ele>
        <time>2024-08-01T16:49:52Z</time>
      </trkpt>
      <trkpt lat="45.60719" lon="3.89004">
        <ele>1369</ele>
        <time>2024-08-01T16:50:23Z</time>
      </trkpt>
      <trkpt lat="45.60646" lon="3.88793">
        <ele>1370</ele>
        <time>2024-08-01T16:52:34Z</time>
      </trkpt>
      <trkpt lat="45.60635" lon="3.88793">
        <ele>1370</ele>
        <time>2024-08-01T16:52:43Z</time>
      </trkpt>
      <trkpt lat="45.60605" lon="3.88705">
        <ele>1372</ele>
        <time>2024-08-01T16:53:38Z</time>
      </trkpt>
      <trkpt lat="45.60574" lon="3.88683">
        <ele>1373</ele>
        <time>2024-08-01T16:54:06Z</time>
      </trkpt>
      <trkpt lat="45.60535" lon="3.88687">
        <ele>1375</ele>
        <time>2024-08-01T16:54:37Z</time>
      </trkpt>
      <trkpt lat="45.60481" lon="3.88705">
        <ele>1376</ele>
        <time>2024-08-01T16:55:21Z</time>
      </trkpt>
      <trkpt lat="45.60444" lon="3.88693">
        <ele>1377</ele>
        <time>2024-08-01T16:55:52Z</time>
      </trkpt>
      <trkpt lat="45.60336" lon="3.88579">
        <ele>1381</ele>
        <time>2024-08-01T16:57:39Z</time>
      </trkpt>
      <trkpt lat="45.60318" lon="3.88579">
        <ele>1381</ele>
        <time>2024-08-01T16:57:54Z</time>
      </trkpt>
      <trkpt lat="45.60309" lon="3.88552">
        <ele>1382</ele>
        <time>2024-08-01T16:58:10Z</time>
      </trkpt>
      <trkpt lat="45.60321" lon="3.88491">
        <ele>1382</ele>
        <time>2024-08-01T16:58:46Z</time>
      </trkpt>
      <trkpt lat="45.6033" lon="3.88404">
        <ele>1382</ele>
        <time>2024-08-01T16:59:35Z</time>
      </trkpt>
      <trkpt lat="45.60336" lon="3.88391">
        <ele>1381</ele>
        <time>2024-08-01T16:59:44Z</time>
      </trkpt>
      <trkpt lat="45.60328" lon="3.88362">
        <ele>1381</ele>
        <time>2024-08-01T17:00:01Z</time>
      </trkpt>
      <trkpt lat="45.60325" lon="3.88319">
        <ele>1380</ele>
        <time>2024-08-01T17:00:26Z</time>
      </trkpt>
      <trkpt lat="45.60331" lon="3.88283">
        <ele>1379</ele>
        <time>2024-08-01T17:00:46Z</time>
      </trkpt>
      <trkpt lat="45.6037" lon="3.88249">
        <ele>1376</ele>
        <time>2024-08-01T17:01:23Z</time>
      </trkpt>
      <trkpt lat="45.60405" lon="3.88197">
        <ele>1373</ele>
        <time>2024-08-01T17:02:03Z</time>
      </trkpt>
      <trkpt lat="45.60446" lon="3.88099">
        <ele>1370</ele>
        <time>2024-08-01T17:03:07Z</time>
      </trkpt>
      <trkpt lat="45.60449" lon="3.8807">
        <ele>1368</ele>
        <time>2024-08-01T17:03:24Z</time>
      </trkpt>
      <trkpt lat="45.60458" lon="3.88025">
        <ele>1366</ele>
        <time>2024-08-01T17:03:50Z</time>
      </trkpt>
      <trkpt lat="45.60481" lon="3.87998">
        <ele>1365</ele>
        <time>2024-08-01T17:04:14Z</time>
      </trkpt>
      <trkpt lat="45.60401" lon="3.87953">
        <ele>1361</ele>
        <time>2024-08-01T17:05:23Z</time>
      </trkpt>
      <trkpt lat="45.60303" lon="3.87935">
        <ele>1356</ele>
        <time>2024-08-01T17:06:42Z</time>
      </trkpt>
      <trkpt lat="45.60266" lon="3.87931">
        <ele>1353</ele>
        <time>2024-08-01T17:07:11Z</time>
      </trkpt>
      <trkpt lat="45.60198" lon="3.87947">
        <ele>1350</ele>
        <time>2024-08-01T17:08:07Z</time>
      </trkpt>
      <trkpt lat="45.6013" lon="3.87959">
        <ele>1347</ele>
        <time>2024-08-01T17:09:01Z</time>
      </trkpt>
      <trkpt lat="45.59992" lon="3.87977">
        <ele>1344</ele>
        <time>2024-08-01T17:10:52Z</time>
      </trkpt>
      <trkpt lat="45.59849" lon="3.87918">
        <ele>1333</ele>
        <time>2024-08-01T17:12:52Z</time>
      </trkpt>
      <trkpt lat="45.59611" lon="3.87805">
        <ele>1312</ele>
        <time>2024-08-01T17:16:12Z</time>
      </trkpt>
      <trkpt lat="45.59615" lon="3.87789">
        <ele>1310</ele>
        <time>2024-08-01T17:16:22Z</time>
      </trkpt>
      <trkpt lat="45.59658" lon="3.87766">
        <ele>1306</ele>
        <time>2024-08-01T17:16:59Z</time>
      </trkpt>
      <trkpt lat="45.5968" lon="3.87751">
        <ele>1304</ele>
        <time>2024-08-01T17:17:18Z</time>
      </trkpt>
      <trkpt lat="45.59704" lon="3.87741">
        <ele>1302</ele>
        <time>2024-08-01T17:17:38Z</time>
      </trkpt>
      <trkpt lat="45.59754" lon="3.87724">
        <ele>1300</ele>
        <time>2024-08-01T17:18:19Z</time>
      </trkpt>
      <trkpt lat="45.59727" lon="3.87697">
        <ele>1295</ele>
        <time>2024-08-01T17:18:46Z</time>
      </trkpt>
      <trkpt lat="45.59697" lon="3.87683">
        <ele>1293</ele>
        <time>2024-08-01T17:19:11Z</time>
      </trkpt>
      <trkpt lat="45.59665" lon="3.87659">
        <ele>1289</ele>
        <time>2024-08-01T17:19:40Z</time>
      </trkpt>
      <trkpt lat="45.59574" lon="3.87594">
        <ele>1277</ele>
        <time>2024-08-01T17:21:01Z</time>
      </trkpt>
      <trkpt lat="45.59513" lon="3.87563">
        <ele>1272</ele>
        <time>2024-08-01T17:21:53Z</time>
      </trkpt>
      <trkpt lat="45.59463" lon="3.87553">
        <ele>1267</ele>
        <time>2024-08-01T17:22:34Z</time>
      </trkpt>
      <trkpt lat="45.59425" lon="3.8755">
        <ele>1264</ele>
        <time>2024-08-01T17:23:04Z</time>
      </trkpt>
      <trkpt lat="45.59373" lon="3.87578">
        <ele>1259</ele>
        <time>2024-08-01T17:23:49Z</time>
      </trkpt>
      <trkpt lat="45.59325" lon="3.87647">
        <ele>1258</ele>
        <time>2024-08-01T17:24:43Z</time>
      </trkpt>
      <trkpt lat="45.5931" lon="3.87644">
        <ele>1258</ele>
        <time>2024-08-01T17:24:55Z</time>
      </trkpt>
      <trkpt lat="45.59315" lon="3.876">
        <ele>1254</ele>
        <time>2024-08-01T17:25:20Z</time>
      </trkpt>
      <trkpt lat="45.59316" lon="3.87581">
        <ele>1252</ele>
        <time>2024-08-01T17:25:31Z</time>
      </trkpt>
      <trkpt lat="45.59307" lon="3.87572">
        <ele>1251</ele>
        <time>2024-08-01T17:25:40Z</time>
      </trkpt>
      <trkpt lat="45.59298" lon="3.8758">
        <ele>1252</ele>
        <time>2024-08-01T17:25:48Z</time>
      </trkpt>
      <trkpt lat="45.59286" lon="3.87578">
        <ele>1252</ele>
        <time>2024-08-01T17:25:58Z</time>
      </trkpt>
      <trkpt lat="45.5928" lon="3.87557">
        <ele>1251</ele>
        <time>2024-08-01T17:26:11Z</time>
      </trkpt>
      <trkpt lat="45.59291" lon="3.87456">
        <ele>1242</ele>
        <time>2024-08-01T17:27:08Z</time>
      </trkpt>
      <trkpt lat="45.59252" lon="3.87393">
        <ele>1238</ele>
        <time>2024-08-01T17:27:55Z</time>
      </trkpt>
      <trkpt lat="45.59232" lon="3.8738">
        <ele>1237</ele>
        <time>2024-08-01T17:28:13Z</time>
      </trkpt>
      <trkpt lat="45.59201" lon="3.8735">
        <ele>1234</ele>
        <time>2024-08-01T17:28:43Z</time>
      </trkpt>
      <trkpt lat="45.59145" lon="3.87317">
        <ele>1231</ele>
        <time>2024-08-01T17:29:31Z</time>
      </trkpt>
      <trkpt lat="45.59117" lon="3.87278">
        <ele>1226</ele>
        <time>2024-08-01T17:30:02Z</time>
      </trkpt>
      <trkpt lat="45.59087" lon="3.87281">
        <ele>1226</ele>
        <time>2024-08-01T17:30:26Z</time>
      </trkpt>
      <trkpt lat="45.5905" lon="3.87293">
        <ele>1224</ele>
        <time>2024-08-01T17:30:57Z</time>
      </trkpt>
      <trkpt lat="45.59007" lon="3.873">
        <ele>1222</ele>
        <time>2024-08-01T17:31:31Z</time>
      </trkpt>
      <trkpt lat="45.58965" lon="3.87299">
        <ele>1223</ele>
        <time>2024-08-01T17:32:05Z</time>
      </trkpt>
      <trkpt lat="45.58897" lon="3.87309">
        <ele>1227</ele>
        <time>2024-08-01T17:33:00Z</time>
      </trkpt>
      <trkpt lat="45.5883" lon="3.87335">
        <ele>1233</ele>
        <time>2024-08-01T17:33:55Z</time>
      </trkpt>
      <trkpt lat="45.58678" lon="3.87336">
        <ele>1234</ele>
        <time>2024-08-01T17:35:57Z</time>
      </trkpt>
      <trkpt lat="45.58644" lon="3.87357">
        <ele>1233</ele>
        <time>2024-08-01T17:36:27Z</time>
      </trkpt>
      <trkpt lat="45.58629" lon="3.87386">
        <ele>1234</ele>
        <time>2024-08-01T17:36:47Z</time>
      </trkpt>
      <trkpt lat="45.58598" lon="3.87481">
        <ele>1241</ele>
        <time>2024-08-01T17:37:46Z</time>
      </trkpt>
      <trkpt lat="45.58548" lon="3.87545">
        <ele>1241</ele>
        <time>2024-08-01T17:38:39Z</time>
      </trkpt>
      <trkpt lat="45.58547" lon="3.87608">
        <ele>1246</ele>
        <time>2024-08-01T17:39:15Z</time>
      </trkpt>
      <trkpt lat="45.58551" lon="3.87664">
        <ele>1249</ele>
        <time>2024-08-01T17:39:46Z</time>
      </trkpt>
      <trkpt lat="45.58529" lon="3.87707">
        <ele>1252</ele>
        <time>2024-08-01T17:40:16Z</time>
      </trkpt>
      <trkpt lat="45.58438" lon="3.87724">
        <ele>1246</ele>
        <time>2024-08-01T17:41:30Z</time>
      </trkpt>
      <trkpt lat="45.58412" lon="3.87746">
        <ele>1247</ele>
        <time>2024-08-01T17:41:54Z</time>
      </trkpt>
      <trkpt lat="45.58218" lon="3.88009">
        <ele>1251</ele>
        <time>2024-08-01T17:45:28Z</time>
      </trkpt>
      <trkpt lat="45.58172" lon="3.88121">
        <ele>1256</ele>
        <time>2024-08-01T17:46:41Z</time>
      </trkpt>
      <trkpt lat="45.58159" lon="3.88134">
        <ele>1255</ele>
        <time>2024-08-01T17:46:53Z</time>
      </trkpt>
      <trkpt lat="45.58146" lon="3.88144">
        <ele>1254</ele>
        <time>2024-08-01T17:47:05Z</time>
      </trkpt>
      <trkpt lat="45.58115" lon="3.88175">
        <ele>1253</ele>
        <time>2024-08-01T17:47:36Z</time>
      </trkpt>
      <trkpt lat="45.58099" lon="3.88195">
        <ele>1251</ele>
        <time>2024-08-01T17:47:53Z</time>
      </trkpt>
      <trkpt lat="45.58088" lon="3.88225">
        <ele>1250</ele>
        <time>2024-08-01T17:48:12Z</time>
      </trkpt>
      <trkpt lat="45.58066" lon="3.88227">
        <ele>1247</ele>
        <time>2024-08-01T17:48:29Z</time>
      </trkpt>
      <trkpt lat="45.58013" lon="3.88222">
        <ele>1242</ele>
        <time>2024-08-01T17:49:12Z</time>
      </trkpt>
      <trkpt lat="45.57967" lon="3.8819">
        <ele>1236</ele>
        <time>2024-08-01T17:49:53Z</time>
      </trkpt>
      <trkpt lat="45.57957" lon="3.88176">
        <ele>1235</ele>
        <time>2024-08-01T17:50:04Z</time>
      </trkpt>
      <trkpt lat="45.57949" lon="3.88168">
        <ele>1234</ele>
        <time>2024-08-01T17:50:12Z</time>
      </trkpt>
      <trkpt lat="45.5792" lon="3.88155">
        <ele>1231</ele>
        <time>2024-08-01T17:50:36Z</time>
      </trkpt>
      <trkpt lat="45.57905" lon="3.8811">
        <ele>1228</ele>
        <time>2024-08-01T17:51:04Z</time>
      </trkpt>
      <trkpt lat="45.57942" lon="3.87887">
        <ele>1222</ele>
        <time>2024-08-01T17:53:12Z</time>
      </trkpt>
      <trkpt lat="45.57966" lon="3.87819">
        <ele>1219</ele>
        <time>2024-08-01T17:53:55Z</time>
      </trkpt>
      <trkpt lat="45.58" lon="3.87751">
        <ele>1214</ele>
        <time>2024-08-01T17:54:42Z</time>
      </trkpt>
      <trkpt lat="45.5804" lon="3.87633">
        <ele>1213</ele>
        <time>2024-08-01T17:55:55Z</time>
      </trkpt>
      <trkpt lat="45.58047" lon="3.87573">
        <ele>1211</ele>
        <time>2024-08-01T17:56:30Z</time>
      </trkpt>
      <trkpt lat="45.58049" lon="3.87521">
        <ele>1207</ele>
        <time>2024-08-01T17:56:59Z</time>
      </trkpt>
      <trkpt lat="45.58059" lon="3.87499">
        <ele>1204</ele>
        <time>2024-08-01T17:57:13Z</time>
      </trkpt>
      <trkpt lat="45.58057" lon="3.87455">
        <ele>1202</ele>
        <time>2024-08-01T17:57:38Z</time>
      </trkpt>
      <trkpt lat="45.58035" lon="3.87412">
        <ele>1198</ele>
        <time>2024-08-01T17:58:08Z</time>
      </trkpt>
      <trkpt lat="45.58005" lon="3.87371">
        <ele>1191</ele>
        <time>2024-08-01T17:58:41Z</time>
      </trkpt>
      <trkpt lat="45.57992" lon="3.8735">
        <ele>1188</ele>
        <time>2024-08-01T17:58:57Z</time>
      </trkpt>
      <trkpt lat="45.5799" lon="3.87332">
        <ele>1184</ele>
        <time>2024-08-01T17:59:07Z</time>
      </trkpt>
      <trkpt lat="45.58012" lon="3.87325">
        <ele>1183</ele>
        <time>2024-08-01T17:59:25Z</time>
      </trkpt>
      <trkpt lat="45.5805" lon="3.87292">
        <ele>1179</ele>
        <time>2024-08-01T18:00:01Z</time>
      </trkpt>
      <trkpt lat="45.58078" lon="3.87274">
        <ele>1177</ele>
        <time>2024-08-01T18:00:25Z</time>
      </trkpt>
      <trkpt lat="45.58047" lon="3.87277">
        <ele>1176</ele>
        <time>2024-08-01T18:00:50Z</time>
      </trkpt>
      <trkpt lat="45.58025" lon="3.8727">
        <ele>1174</ele>
        <time>2024-08-01T18:01:08Z</time>
      </trkpt>
      <trkpt lat="45.57985" lon="3.87279">
        <ele>1175</ele>
        <time>2024-08-01T18:01:41Z</time>
      </trkpt>
      <trkpt lat="45.57929" lon="3.87282">
        <ele>1178</ele>
        <time>2024-08-01T18:02:26Z</time>
      </trkpt>
      <trkpt lat="45.57896" lon="3.87243">
        <ele>1170</ele>
        <time>2024-08-01T18:03:00Z</time>
      </trkpt>
      <trkpt lat="45.5788" lon="3.87232">
        <ele>1170</ele>
        <time>2024-08-01T18:03:14Z</time>
      </trkpt>
      <trkpt lat="45.5786" lon="3.87231">
        <ele>1169</ele>
        <time>2024-08-01T18:03:30Z</time>
      </trkpt>
      <trkpt lat="45.57851" lon="3.87229">
        <ele>1169</ele>
        <time>2024-08-01T18:03:37Z</time>
      </trkpt>
      <trkpt lat="45.57825" lon="3.87218">
        <ele>1169</ele>
        <time>2024-08-01T18:03:59Z</time>
      </trkpt>
      <trkpt lat="45.57808" lon="3.87219">
        <ele>1169</ele>
        <time>2024-08-01T18:04:13Z</time>
      </trkpt>
      <trkpt lat="45.57793" lon="3.87216">
        <ele>1169</ele>
        <time>2024-08-01T18:04:25Z</time>
      </trkpt>
      <trkpt lat="45.57767" lon="3.87215">
        <ele>1170</ele>
        <time>2024-08-01T18:04:46Z</time>
      </trkpt>
    </trkseg>
  </trk>
</gpx>